Time;durP1;ratioP1;P1;durP2;ratioP2;P2;SDS_P1;SDS_P2;PMS_P1;PMS_P2;Temp;Humidity;BMP_temperature;BMP_pressure;BME280_temperature;BME280_humidity;BME280_pressure;Samples;Min_cycle;Max_cycle;Signal;HPM_P1;HPM_P2
2024/04/08 00:02:36;;;;;;;15.75;3.05;;;17.00;1.00;;;;;;4986674;28;20045;-83
2024/04/08 00:05:24;;;;;;;16.73;2.63;;;17.30;1.00;;;;;;5014235;28;20046;-81
2024/04/08 00:08:13;;;;;;;15.48;2.72;;;17.40;1.00;;;;;;5010250;28;20516;-82
2024/04/08 00:11:07;;;;;;;12.18;2.50;;;17.40;1.00;;;;;;5005916;28;20109;-83
2024/04/08 00:13:53;;;;;;;17.98;2.78;;;17.50;1.00;;;;;;5011915;28;20540;-83
2024/04/08 00:16:41;;;;;;;13.23;3.30;;;17.40;1.00;;;;;;5011949;28;20034;-83
2024/04/08 00:19:28;;;;;;;14.68;2.58;;;17.30;1.00;;;;;;4996855;28;20051;-84
2024/04/08 00:22:14;;;;;;;22.58;3.15;;;17.30;1.00;;;;;;4997704;28;20406;-84
2024/04/08 00:25:00;;;;;;;15.73;2.60;;;17.30;1.00;;;;;;5018260;28;20045;-80
2024/04/08 00:27:47;;;;;;;10.30;2.90;;;17.30;1.00;;;;;;4989132;28;20133;-83
2024/04/08 00:30:35;;;;;;;19.02;3.30;;;17.40;1.00;;;;;;5000549;28;20056;-82
2024/04/08 00:33:26;;;;;;;8.65;2.58;;;17.40;1.00;;;;;;5018319;28;20108;-85
2024/04/08 00:36:13;;;;;;;10.95;2.28;;;17.30;1.00;;;;;;5021264;28;20418;-83
2024/04/08 00:39:00;;;;;;;14.38;2.75;;;17.30;1.00;;;;;;5004304;28;20446;-83
2024/04/08 00:41:48;;;;;;;12.18;2.97;;;17.20;1.00;;;;;;5001712;28;20051;-85
2024/04/08 00:44:34;;;;;;;13.95;2.97;;;17.10;1.00;;;;;;5000809;28;20064;-84
2024/04/08 00:47:23;;;;;;;20.23;2.67;;;17.00;1.00;;;;;;5000773;28;20053;-83
2024/04/08 00:50:11;;;;;;;17.40;2.83;;;16.90;1.00;;;;;;5000514;28;20052;-82
2024/04/08 00:52:58;;;;;;;16.25;2.60;;;16.80;1.00;;;;;;5013476;28;20042;-84
2024/04/08 00:55:46;;;;;;;15.13;2.97;;;16.70;1.00;;;;;;5014847;28;20045;-85
2024/04/08 00:58:33;;;;;;;13.35;2.95;;;16.70;1.00;;;;;;5033784;28;20097;-80
2024/04/08 01:01:20;;;;;;;10.52;2.75;;;16.60;1.00;;;;;;5033035;28;20031;-79
2024/04/08 01:04:07;;;;;;;13.93;2.60;;;16.50;1.00;;;;;;5020262;28;20063;-78
2024/04/08 01:06:54;;;;;;;11.73;2.30;;;16.50;1.00;;;;;;5028681;28;20064;-84
2024/04/08 01:09:40;;;;;;;9.30;2.50;;;16.30;1.00;;;;;;5012035;28;20038;-84
2024/04/08 01:12:27;;;;;;;7.97;2.25;;;16.20;1.00;;;;;;5010824;28;20048;-84
2024/04/08 01:15:13;;;;;;;16.45;2.75;;;16.10;1.00;;;;;;5017268;28;20124;-81
2024/04/08 01:18:00;;;;;;;15.32;2.83;;;16.00;1.00;;;;;;5013724;28;20099;-83
2024/04/08 01:20:46;;;;;;;9.27;2.65;;;16.00;1.00;;;;;;5021327;28;20045;-81
2024/04/08 01:23:42;;;;;;;15.05;2.63;;;15.90;1.00;;;;;;5012358;28;20045;-87
2024/04/08 01:26:29;;;;;;;10.55;2.92;;;16.00;1.00;;;;;;5011470;28;20053;-81
2024/04/08 01:29:15;;;;;;;14.13;2.38;;;16.00;1.00;;;;;;5011598;28;20045;-84
2024/04/08 01:32:04;;;;;;;13.77;2.47;;;16.00;1.00;;;;;;4998551;28;20049;-86
2024/04/08 01:34:55;;;;;;;10.07;2.10;;;15.90;1.00;;;;;;5012839;28;20101;-84
2024/04/08 01:37:42;;;;;;;10.57;3.20;;;15.90;1.00;;;;;;5011215;28;20042;-85
2024/04/08 01:40:29;;;;;;;9.10;2.75;;;15.80;1.00;;;;;;4998997;28;20041;-85
2024/04/08 01:43:15;;;;;;;18.05;3.20;;;15.70;1.00;;;;;;5011194;28;20072;-85
2024/04/08 01:46:02;;;;;;;13.15;2.75;;;15.60;1.00;;;;;;5018522;28;20490;-80
2024/04/08 01:48:50;;;;;;;9.68;2.47;;;15.50;1.00;;;;;;5010629;28;20477;-83
2024/04/08 01:51:37;;;;;;;14.35;3.10;;;15.50;1.00;;;;;;5017176;28;20060;-82
2024/04/08 01:54:23;;;;;;;13.13;2.50;;;15.40;1.00;;;;;;5023486;28;20605;-83
2024/04/08 01:57:10;;;;;;;14.25;2.10;;;15.40;1.00;;;;;;5007827;28;20063;-77
2024/04/08 01:59:57;;;;;;;8.32;2.65;;;15.40;1.00;;;;;;5020632;28;20528;-84
2024/04/08 02:02:45;;;;;;;15.20;3.20;;;15.40;1.00;;;;;;5011701;28;20053;-84
2024/04/08 02:05:32;;;;;;;13.27;2.75;;;15.40;1.00;;;;;;5010019;28;20037;-83
2024/04/08 02:08:18;;;;;;;10.60;2.70;;;15.30;1.00;;;;;;5011396;28;20559;-83
2024/04/08 02:11:05;;;;;;;16.42;3.80;;;15.30;1.00;;;;;;5009278;28;20041;-86
2024/04/08 02:13:51;;;;;;;10.68;2.50;;;15.20;1.00;;;;;;5003160;28;20556;-84
2024/04/08 02:16:38;;;;;;;14.43;2.80;;;15.20;1.00;;;;;;4997405;28;20041;-83
2024/04/08 02:19:26;;;;;;;12.35;3.17;;;15.00;1.00;;;;;;4985122;28;20053;-84
2024/04/08 02:22:12;;;;;;;10.27;2.63;;;14.90;1.00;;;;;;5009846;28;20046;-83
2024/04/08 02:24:59;;;;;;;21.25;2.83;;;14.80;1.00;;;;;;5009401;28;20064;-86
2024/04/08 02:27:45;;;;;;;9.35;2.33;;;14.80;1.00;;;;;;5030192;28;20371;-79
2024/04/08 02:30:36;;;;;;;17.33;2.47;;;14.90;1.00;;;;;;5023014;28;20185;-81
2024/04/08 02:33:24;;;;;;;11.23;2.50;;;14.90;1.00;;;;;;5024666;28;20052;-79
2024/04/08 02:36:11;;;;;;;12.20;2.40;;;14.90;1.00;;;;;;5041951;28;20042;-84
2024/04/08 02:39:00;;;;;;;20.63;3.50;;;14.90;1.00;;;;;;5023374;28;20105;-83
2024/04/08 02:41:48;;;;;;;9.75;2.50;;;14.90;1.00;;;;;;5011813;28;20487;-83
2024/04/08 02:44:36;;;;;;;13.77;2.97;;;14.80;1.00;;;;;;5004812;28;20049;-83
2024/04/08 02:47:23;;;;;;;8.50;3.15;;;14.80;1.00;;;;;;5016281;28;20056;-85
2024/04/08 02:50:10;;;;;;;9.85;2.33;;;14.80;1.00;;;;;;5016087;28;20038;-86
2024/04/08 02:52:56;;;;;;;13.38;3.50;;;14.80;1.00;;;;;;5015479;28;20536;-87
2024/04/08 02:55:44;;;;;;;14.93;3.28;;;14.70;1.00;;;;;;5016640;28;20049;-85
2024/04/08 02:58:32;;;;;;;14.68;2.70;;;14.60;1.00;;;;;;5002508;28;20506;-83
2024/04/08 03:01:19;;;;;;;19.45;3.22;;;14.60;1.00;;;;;;5015066;28;20110;-85
2024/04/08 03:04:06;;;;;;;11.98;2.75;;;14.50;1.00;;;;;;5033946;28;20042;-82
2024/04/08 03:06:53;;;;;;;14.48;2.92;;;14.40;1.00;;;;;;5031242;28;20079;-84
2024/04/08 03:09:39;;;;;;;13.77;3.38;;;14.30;1.00;;;;;;4986467;28;20042;-84
2024/04/08 03:12:26;;;;;;;9.20;3.08;;;14.20;1.00;;;;;;5018256;28;20433;-84
2024/04/08 03:15:13;;;;;;;28.55;9.45;;;14.10;1.00;;;;;;5023847;28;20046;-84
2024/04/08 03:18:01;;;;;;;12.45;3.83;;;14.00;1.00;;;;;;4991773;28;20506;-84
2024/04/08 03:21:02;;;;;;;10.90;2.90;;;13.90;1.00;;;;;;5014726;28;20102;-83
2024/04/08 03:23:49;;;;;;;10.45;2.67;;;13.80;1.00;;;;;;5009928;28;20050;-84
2024/04/08 03:26:35;;;;;;;11.13;2.38;;;13.80;1.00;;;;;;5012654;28;20068;-85
2024/04/08 03:29:24;;;;;;;13.30;2.97;;;13.80;1.00;;;;;;5013479;28;20048;-84
2024/04/08 03:32:11;;;;;;;11.88;3.38;;;13.70;1.00;;;;;;5000385;28;20050;-84
2024/04/08 03:34:57;;;;;;;16.95;3.47;;;13.60;8.60;;;;;;5013803;28;20084;-84
2024/04/08 03:37:43;;;;;;;13.98;2.95;;;13.50;18.40;;;;;;5001138;28;20057;-85
2024/04/08 03:40:30;;;;;;;12.00;3.35;;;13.50;20.40;;;;;;5012113;28;20060;-84
2024/04/08 03:43:17;;;;;;;17.27;3.15;;;13.50;24.90;;;;;;5000184;28;20056;-84
2024/04/08 03:46:04;;;;;;;13.63;3.58;;;13.50;23.00;;;;;;5015380;28;20065;-83
2024/04/08 03:48:51;;;;;;;19.00;2.92;;;13.50;26.30;;;;;;5013696;28;20063;-82
2024/04/08 03:51:40;;;;;;;12.05;3.22;;;13.50;29.80;;;;;;5001874;28;20046;-81
2024/04/08 03:54:29;;;;;;;12.02;2.88;;;13.50;32.60;;;;;;5022961;28;20048;-84
2024/04/08 03:57:16;;;;;;;9.27;2.88;;;13.40;59.10;;;;;;5018147;28;20041;-84
2024/04/08 04:00:03;;;;;;;17.90;3.70;;;13.30;57.30;;;;;;5020241;28;20034;-84
2024/04/08 04:02:51;;;;;;;20.95;3.42;;;13.10;65.30;;;;;;5021729;28;20096;-82
2024/04/08 04:05:38;;;;;;;13.35;2.60;;;13.10;65.00;;;;;;5021453;28;20041;-80
2024/04/08 04:08:26;;;;;;;14.93;3.72;;;13.10;76.80;;;;;;5034067;28;20037;-83
2024/04/08 04:11:16;;;;;;;11.35;2.97;;;13.00;78.00;;;;;;5023921;28;20041;-86
2024/04/08 04:14:05;;;;;;;13.38;2.72;;;13.00;84.40;;;;;;4999555;28;20056;-84
2024/04/08 04:16:51;;;;;;;14.85;3.40;;;12.90;94.30;;;;;;4999605;28;20045;-86
2024/04/08 04:19:39;;;;;;;9.50;3.03;;;12.80;99.90;;;;;;5011762;28;20049;-84
2024/04/08 04:22:26;;;;;;;18.63;3.47;;;12.60;99.90;;;;;;5012884;28;20483;-85
2024/04/08 04:25:12;;;;;;;18.85;3.97;;;12.50;99.90;;;;;;5012496;28;20045;-86
2024/04/08 04:28:00;;;;;;;15.75;3.50;;;12.40;99.90;;;;;;5000682;28;20045;-83
2024/04/08 04:30:57;;;;;;;16.00;3.60;;;12.30;99.90;;;;;;5021847;28;20087;-83
2024/04/08 04:33:44;;;;;;;13.40;3.42;;;12.20;99.90;;;;;;5013983;28;20201;-85
2024/04/08 04:36:32;;;;;;;11.52;3.13;;;12.10;99.90;;;;;;5021872;28;20042;-85
2024/04/08 04:39:20;;;;;;;19.33;3.17;;;12.00;99.90;;;;;;5011270;28;20075;-85
2024/04/08 04:42:07;;;;;;;16.05;3.25;;;12.00;99.90;;;;;;5001562;28;20052;-78
2024/04/08 04:44:53;;;;;;;10.82;3.50;;;11.90;99.90;;;;;;5008737;28;20055;-86
2024/04/08 04:47:41;;;;;;;10.65;3.38;;;11.80;99.90;;;;;;5014830;28;20049;-84
2024/04/08 04:50:28;;;;;;;22.15;3.67;;;11.80;99.90;;;;;;5012995;28;20042;-84
2024/04/08 04:53:14;;;;;;;19.10;3.33;;;11.80;99.90;;;;;;5012974;28;20066;-84
2024/04/08 04:56:01;;;;;;;12.35;3.22;;;11.90;99.90;;;;;;5006270;28;20509;-83
2024/04/08 04:58:48;;;;;;;10.88;3.75;;;11.90;99.90;;;;;;5004123;28;20047;-84
2024/04/08 05:01:34;;;;;;;12.40;3.10;;;11.90;99.90;;;;;;5013924;28;20057;-84
2024/04/08 05:04:29;;;;;;;8.43;3.05;;;11.90;99.90;;;;;;5018922;28;20053;-83
2024/04/08 05:07:15;;;;;;;20.33;3.65;;;11.90;99.90;;;;;;5015507;28;20718;-86
2024/04/08 05:10:04;;;;;;;10.40;3.92;;;11.80;99.90;;;;;;5016541;28;20042;-85
2024/04/08 05:12:50;;;;;;;14.68;3.03;;;11.90;99.90;;;;;;5013866;28;20474;-83
2024/04/08 05:15:37;;;;;;;9.70;3.08;;;11.90;99.90;;;;;;5022276;28;20057;-84
2024/04/08 05:18:25;;;;;;;12.98;3.63;;;11.90;99.90;;;;;;5020036;28;20041;-83
2024/04/08 05:21:13;;;;;;;14.48;3.72;;;12.00;99.90;;;;;;5015246;28;20057;-82
2024/04/08 05:23:59;;;;;;;13.82;3.58;;;12.00;99.90;;;;;;5004669;28;20075;-86
2024/04/08 05:26:47;;;;;;;18.40;3.22;;;12.00;99.90;;;;;;5014660;28;20048;-87
2024/04/08 05:29:33;;;;;;;11.50;2.92;;;12.00;99.90;;;;;;5011320;28;20544;-82
2024/04/08 05:32:21;;;;;;;18.55;3.65;;;12.10;99.90;;;;;;5016452;28;20041;-86
2024/04/08 05:35:08;;;;;;;15.10;2.88;;;12.20;99.90;;;;;;5012804;28;20048;-87
2024/04/08 05:37:55;;;;;;;11.20;3.55;;;12.30;99.90;;;;;;5011812;28;20056;-83
2024/04/08 05:40:42;;;;;;;16.05;3.33;;;12.40;99.90;;;;;;4998006;28;20068;-83
2024/04/08 05:43:29;;;;;;;15.75;3.55;;;12.50;99.90;;;;;;5013067;28;20059;-84
2024/04/08 05:46:18;;;;;;;20.75;3.72;;;12.60;99.90;;;;;;5000910;28;20053;-84
2024/04/08 05:49:05;;;;;;;24.73;3.92;;;12.70;99.90;;;;;;5017419;28;20052;-85
2024/04/08 05:51:51;;;;;;;17.83;3.15;;;12.80;99.90;;;;;;5014504;28;20413;-84
2024/04/08 05:54:38;;;;;;;14.98;4.28;;;12.90;99.90;;;;;;5000302;28;20041;-79
2024/04/08 05:57:26;;;;;;;19.88;4.18;;;13.10;99.90;;;;;;5021664;28;20045;-84
2024/04/08 06:00:18;;;;;;;20.52;3.85;;;13.20;99.90;;;;;;5017084;28;20091;-83
2024/04/08 06:03:06;;;;;;;12.60;4.13;;;13.40;99.90;;;;;;5006095;28;20060;-84
2024/04/08 06:05:53;;;;;;;17.75;3.90;;;13.60;99.90;;;;;;5003552;28;20060;-82
2024/04/08 06:08:40;;;;;;;15.52;3.33;;;13.70;99.90;;;;;;4999342;28;20410;-83
2024/04/08 06:11:26;;;;;;;10.48;3.60;;;13.90;99.90;;;;;;5018186;28;20048;-85
2024/04/08 06:14:14;;;;;;;16.13;3.28;;;14.10;99.90;;;;;;5016989;28;20076;-84
2024/04/08 06:17:03;;;;;;;11.98;3.45;;;14.30;99.90;;;;;;5016634;28;20049;-85
2024/04/08 06:19:51;;;;;;;11.00;3.80;;;14.60;99.90;;;;;;5000617;28;20045;-87
2024/04/08 06:22:39;;;;;;;16.42;3.65;;;14.80;99.90;;;;;;5000158;28;20049;-87
2024/04/08 06:25:26;;;;;;;13.10;3.28;;;15.10;99.90;;;;;;4987017;28;20045;-86
2024/04/08 06:28:13;;;;;;;21.60;6.70;;;15.20;92.00;;;;;;4984852;28;20045;-85
2024/04/08 06:31:02;;;;;;;19.17;3.53;;;15.40;27.10;;;;;;4999187;28;20042;-85
2024/04/08 06:33:48;;;;;;;11.52;3.17;;;15.70;42.70;;;;;;5012368;28;20132;-85
2024/04/08 06:36:35;;;;;;;10.10;3.08;;;16.20;29.30;;;;;;5020958;28;20042;-85
2024/04/08 06:39:24;;;;;;;14.70;2.95;;;16.60;19.20;;;;;;5015691;28;20046;-85
2024/04/08 06:42:16;;;;;;;11.32;3.42;;;17.00;1.00;;;;;;5013839;28;20052;-86
2024/04/08 06:45:05;;;;;;;27.40;4.47;;;17.30;1.00;;;;;;5006098;28;20049;-85
2024/04/08 06:47:52;;;;;;;23.13;3.60;;;17.40;1.00;;;;;;5011122;28;20055;-87
2024/04/08 06:50:38;;;;;;;12.45;2.50;;;17.60;1.00;;;;;;5013405;28;20047;-85
2024/04/08 06:53:25;;;;;;;15.25;2.95;;;18.10;1.00;;;;;;4998985;28;20041;-85
2024/04/08 06:56:16;;;;;;;9.70;2.67;;;18.70;1.00;;;;;;5013472;28;20048;-86
2024/04/08 06:59:02;;;;;;;15.15;2.88;;;19.20;1.00;;;;;;5012325;28;20421;-86
2024/04/08 07:01:49;;;;;;;13.95;2.65;;;19.60;1.00;;;;;;5012338;28;20046;-87
2024/04/08 07:04:35;;;;;;;16.10;2.85;;;19.90;1.00;;;;;;5013235;28;20115;-86
2024/04/08 07:07:24;;;;;;;12.23;3.25;;;20.10;1.00;;;;;;4997180;28;20145;-84
2024/04/08 07:10:11;;;;;;;9.35;2.40;;;20.30;1.00;;;;;;4998872;28;20049;-85
2024/04/08 07:12:58;;;;;;;12.98;2.50;;;20.50;1.00;;;;;;5014281;28;20061;-82
2024/04/08 07:15:54;;;;;;;14.93;2.88;;;20.80;1.00;;;;;;5020444;28;20053;-86
2024/04/08 07:18:41;;;;;;;14.43;3.33;;;21.20;1.00;;;;;;5010893;28;20523;-85
2024/04/08 07:21:28;;;;;;;18.83;2.83;;;21.40;1.00;;;;;;5017918;28;20051;-84
2024/04/08 07:24:15;;;;;;;9.82;2.42;;;21.50;1.00;;;;;;5023854;28;20049;-86
2024/04/08 07:27:05;;;;;;;15.73;2.95;;;21.80;1.00;;;;;;5015271;28;20053;-84
2024/04/08 07:29:52;;;;;;;11.63;3.38;;;22.20;1.00;;;;;;5006773;28;20041;-85
2024/04/08 07:32:40;;;;;;;15.98;3.33;;;22.70;1.00;;;;;;5014244;28;20056;-85
2024/04/08 07:35:31;;;;;;;9.32;2.80;;;23.00;1.00;;;;;;4998306;28;20037;-81
2024/04/08 07:38:19;;;;;;;15.38;2.58;;;23.20;1.00;;;;;;5011920;28;20042;-85
2024/04/08 07:41:05;;;;;;;11.82;3.42;;;23.50;1.00;;;;;;5013045;28;20046;-81
2024/04/08 07:43:55;;;;;;;14.43;3.33;;;23.10;1.00;;;;;;5012483;28;20061;-85
2024/04/08 07:46:42;;;;;;;13.52;2.75;;;23.40;1.00;;;;;;5013942;28;20065;-85
2024/04/08 07:49:28;;;;;;;11.73;2.60;;;24.30;1.00;;;;;;5012484;28;20042;-86
2024/04/08 07:52:16;;;;;;;9.35;2.22;;;24.50;1.00;;;;;;5011413;28;20045;-82
2024/04/08 07:55:04;;;;;;;9.98;2.55;;;24.50;1.00;;;;;;4992945;28;20046;-85
2024/04/08 07:57:51;;;;;;;11.18;2.58;;;24.50;1.00;;;;;;4999055;28;20124;-85
2024/04/08 08:00:37;;;;;;;14.23;2.25;;;24.60;1.00;;;;;;5003256;28;20046;-78
2024/04/08 08:03:28;;;;;;;11.65;2.42;;;24.80;1.00;;;;;;5020764;28;20473;-85
2024/04/08 08:06:15;;;;;;;8.93;2.50;;;24.90;1.00;;;;;;5007309;28;20052;-82
2024/04/08 08:09:03;;;;;;;8.30;2.40;;;25.30;1.00;;;;;;5007178;28;20534;-84
2024/04/08 08:11:50;;;;;;;17.48;2.63;;;25.30;1.00;;;;;;5010572;28;20060;-84
2024/04/08 08:14:37;;;;;;;15.68;2.60;;;25.70;1.00;;;;;;4998457;28;20038;-86
2024/04/08 08:17:26;;;;;;;13.30;2.50;;;26.30;1.00;;;;;;5013541;28;20528;-85
2024/04/08 08:20:13;;;;;;;13.55;2.35;;;26.50;1.00;;;;;;5013787;28;20422;-85
2024/04/08 08:23:00;;;;;;;12.02;2.25;;;26.70;1.00;;;;;;4995748;28;20423;-86
2024/04/08 08:25:48;;;;;;;10.57;2.05;;;26.80;1.00;;;;;;5015007;28;20506;-86
2024/04/08 08:28:36;;;;;;;11.48;2.00;;;26.70;1.00;;;;;;5001709;28;20487;-83
2024/04/08 08:31:23;;;;;;;11.63;2.90;;;26.70;1.00;;;;;;5000450;28;20105;-79
2024/04/08 08:34:14;;;;;;;22.15;3.00;;;26.80;1.00;;;;;;5011700;28;20042;-85
2024/04/08 08:37:02;;;;;;;16.27;2.80;;;26.90;1.00;;;;;;5014369;28;20469;-85
2024/04/08 08:39:50;;;;;;;12.98;2.60;;;26.40;1.00;;;;;;5009004;28;20100;-85
2024/04/08 08:42:37;;;;;;;12.40;2.20;;;26.70;1.00;;;;;;5021833;28;20111;-85
2024/04/08 08:45:25;;;;;;;11.95;2.25;;;26.30;1.00;;;;;;5006255;28;20284;-82
2024/04/08 08:48:11;;;;;;;16.58;2.72;;;26.20;1.00;;;;;;5009804;28;20061;-85
2024/04/08 08:51:02;;;;;;;11.73;2.47;;;26.60;1.00;;;;;;5017447;28;20116;-85
2024/04/08 08:53:49;;;;;;;10.17;2.53;;;26.80;1.00;;;;;;4999396;28;20087;-85
2024/04/08 08:56:35;;;;;;;11.75;2.97;;;26.90;1.00;;;;;;5016803;28;20055;-86
2024/04/08 08:59:23;;;;;;;11.68;2.40;;;26.80;1.00;;;;;;5014698;28;20052;-85
2024/04/08 09:02:14;;;;;;;10.52;2.08;;;26.60;1.00;;;;;;5021440;28;20047;-84
2024/04/08 09:05:01;;;;;;;11.85;2.25;;;26.70;1.00;;;;;;5013414;28;20103;-84
2024/04/08 09:07:51;;;;;;;12.98;2.55;;;27.30;1.00;;;;;;5005690;28;20048;-86
2024/04/08 09:10:47;;;;;;;9.55;1.95;;;27.50;1.00;;;;;;5014222;28;20051;-85
2024/04/08 09:13:34;;;;;;;14.32;1.75;;;27.30;1.00;;;;;;5014057;28;20045;-86
2024/04/08 09:16:24;;;;;;;11.05;2.40;;;27.70;1.00;;;;;;4988004;28;20051;-85
2024/04/08 09:19:12;;;;;;;10.83;2.00;;;27.40;1.00;;;;;;5013906;28;20044;-83
2024/04/08 09:21:58;;;;;;;9.38;1.95;;;27.50;1.00;;;;;;5030001;28;20085;-82
2024/04/08 09:24:46;;;;;;;7.75;1.38;;;27.50;1.00;;;;;;5021504;28;20059;-86
2024/04/08 09:27:33;;;;;;;10.57;2.75;;;27.90;1.00;;;;;;5009648;28;20444;-84
2024/04/08 09:30:21;;;;;;;11.80;2.25;;;28.40;1.00;;;;;;5008950;28;20497;-85
2024/04/08 09:33:12;;;;;;;7.72;1.83;;;29.10;1.00;;;;;;5019398;28;20052;-86
2024/04/08 09:35:59;;;;;;;7.55;2.53;;;29.40;1.00;;;;;;5008049;28;20064;-85
2024/04/08 09:38:47;;;;;;;6.72;1.55;;;29.50;1.00;;;;;;5021957;28;20128;-85
2024/04/08 09:41:37;;;;;;;7.20;2.08;;;28.90;99.90;;;;;;5000042;28;20088;-85
2024/04/08 09:44:30;;;;;;;9.73;1.95;;;29.00;99.90;;;;;;5013253;28;20045;-86
2024/04/08 09:47:17;;;;;;;4.93;1.80;;;29.60;99.90;;;;;;5014804;28;20049;-86
2024/04/08 09:50:05;;;;;;;12.05;2.17;;;29.80;99.90;;;;;;5013870;28;20041;-84
2024/04/08 09:52:52;;;;;;;13.30;1.80;;;30.10;99.90;;;;;;5013399;28;20048;-85
2024/04/08 09:55:40;;;;;;;11.85;1.95;;;30.00;99.90;;;;;;5001276;28;20532;-85
2024/04/08 09:58:33;;;;;;;12.73;2.00;;;30.30;99.90;;;;;;5001066;28;20052;-84
2024/04/08 10:01:21;;;;;;;12.27;1.80;;;30.30;99.90;;;;;;5011726;28;20054;-86
2024/04/08 10:04:24;;;;;;;9.60;2.15;;;30.80;1.00;;;;;;5005056;28;20452;-86
2024/04/08 10:07:13;;;;;;;9.60;1.80;;;31.40;99.90;;;;;;5001001;28;20041;-84
2024/04/08 10:10:07;;;;;;;6.63;1.70;;;31.60;99.90;;;;;;4999624;28;20044;-83
2024/04/08 10:12:58;;;;;;;12.32;1.88;;;32.20;99.90;;;;;;5017841;28;20049;-79
2024/04/08 10:15:44;;;;;;;8.15;1.88;;;32.90;99.90;;;;;;5030878;28;20045;-84
2024/04/08 10:18:32;;;;;;;11.85;1.77;;;32.00;99.90;;;;;;5016921;28;20406;-80
2024/04/08 10:21:19;;;;;;;7.00;2.15;;;31.00;99.90;;;;;;5029612;28;20041;-83
2024/04/08 10:24:06;;;;;;;10.00;1.75;;;30.60;99.90;;;;;;5013397;28;20460;-83
2024/04/08 10:27:07;;;;;;;8.40;1.75;;;31.00;99.90;;;;;;4990320;28;20057;-84
2024/04/08 10:30:00;;;;;;;8.65;1.77;;;31.70;99.90;;;;;;5012662;28;20098;-85
2024/04/08 10:32:46;;;;;;;12.57;2.38;;;31.70;99.90;;;;;;5016592;28;20101;-85
2024/04/08 10:37:28;;;;;;;11.40;1.98;;;31.50;99.90;;;;;;5426610;26;21521;-84
2024/04/08 10:40:20;;;;;;;13.65;2.35;;;31.30;99.90;;;;;;5386594;26;20007;-85
2024/04/08 10:43:09;;;;;;;12.65;1.90;;;31.40;99.90;;;;;;5387820;26;20016;-86
2024/04/08 10:45:57;;;;;;;11.88;1.95;;;31.20;99.90;;;;;;5387676;26;20358;-84
2024/04/08 10:48:45;;;;;;;9.57;1.83;;;31.60;99.90;;;;;;5399687;26;20461;-81
2024/04/08 10:51:32;;;;;;;13.30;3.00;;;32.30;99.90;;;;;;5377173;26;20019;-82
2024/04/08 10:54:20;;;;;;;7.55;1.60;;;32.50;99.90;;;;;;5399005;26;20008;-84
2024/04/08 10:57:10;;;;;;;12.05;2.05;;;32.00;99.90;;;;;;5393053;26;20040;-85
2024/04/08 10:59:57;;;;;;;9.18;1.52;;;32.30;99.90;;;;;;5396207;26;19996;-85
2024/04/08 11:02:45;;;;;;;8.63;1.88;;;32.70;99.90;;;;;;5398894;26;20020;-85
2024/04/08 11:05:33;;;;;;;12.57;2.15;;;32.80;99.90;;;;;;5385870;26;20014;-84
2024/04/08 11:08:21;;;;;;;15.15;2.25;;;33.40;99.90;;;;;;5385424;26;20012;-84
2024/04/08 11:11:09;;;;;;;11.82;1.70;;;33.80;99.90;;;;;;5384472;26;20012;-82
2024/04/08 11:13:57;;;;;;;7.95;2.13;;;34.10;99.90;;;;;;5420865;26;20023;-84
2024/04/08 11:16:46;;;;;;;15.15;2.33;;;34.40;99.90;;;;;;5423830;26;20008;-85
2024/04/08 11:19:38;;;;;;;9.70;2.40;;;34.30;99.90;;;;;;5421513;26;20084;-85
2024/04/08 11:22:26;;;;;;;11.13;2.08;;;33.40;99.90;;;;;;5423974;26;20022;-84
2024/04/08 11:25:16;;;;;;;15.10;3.28;;;33.10;99.90;;;;;;5423486;26;20043;-85
2024/04/08 11:28:08;;;;;;;16.20;2.70;;;33.40;99.90;;;;;;5421724;26;20003;-84
2024/04/08 11:30:58;;;;;;;11.23;2.60;;;33.00;99.90;;;;;;5423406;26;20352;-84
2024/04/08 11:33:45;;;;;;;19.92;4.47;;;32.40;99.90;;;;;;5424052;26;20007;-79
2024/04/08 11:36:33;;;;;;;14.45;2.58;;;32.10;99.90;;;;;;5412366;26;20019;-84
2024/04/08 11:39:21;;;;;;;18.95;2.60;;;32.50;99.90;;;;;;5408422;26;20007;-83
2024/04/08 11:42:11;;;;;;;14.10;2.83;;;32.60;99.90;;;;;;5420527;26;20012;-84
2024/04/08 11:45:04;;;;;;;14.68;3.08;;;32.90;99.90;;;;;;5429757;26;20003;-81
2024/04/08 11:47:56;;;;;;;18.35;3.67;;;32.90;99.90;;;;;;5405538;26;20054;-85
2024/04/08 11:50:52;;;;;;;20.48;3.10;;;32.60;99.90;;;;;;5413632;26;20019;-81
2024/04/08 11:53:40;;;;;;;13.85;2.75;;;32.60;99.90;;;;;;5409570;26;20019;-81
2024/04/08 11:56:29;;;;;;;14.20;2.30;;;32.70;99.90;;;;;;5384566;26;20003;-83
2024/04/08 11:59:17;;;;;;;13.23;2.40;;;32.90;99.90;;;;;;5359488;26;20007;-82
2024/04/08 12:02:07;;;;;;;14.75;3.25;;;32.60;99.90;;;;;;5412937;26;20004;-82
2024/04/08 12:04:58;;;;;;;17.67;3.13;;;33.50;99.90;;;;;;5425706;26;20014;-79
2024/04/08 12:07:46;;;;;;;24.38;3.65;;;33.50;99.90;;;;;;5426757;26;20003;-83
2024/04/08 12:10:36;;;;;;;18.45;2.90;;;33.60;99.90;;;;;;5401047;26;20530;-79
2024/04/08 12:13:26;;;;;;;16.83;2.95;;;33.20;99.90;;;;;;5401559;26;20007;-79
2024/04/08 12:16:15;;;;;;;16.70;3.05;;;32.80;99.90;;;;;;5425297;26;20007;-77
2024/04/08 12:19:06;;;;;;;15.43;2.80;;;32.60;99.90;;;;;;5411332;26;20084;-83
2024/04/08 12:21:55;;;;;;;22.05;4.57;;;32.20;99.90;;;;;;5389254;26;20007;-82
2024/04/08 12:24:43;;;;;;;26.25;3.83;;;31.60;99.90;;;;;;5416168;26;20018;-76
2024/04/08 12:27:31;;;;;;;19.17;3.58;;;30.30;99.90;;;;;;5401443;26;20022;-85
2024/04/08 12:30:19;;;;;;;19.15;3.83;;;29.60;99.90;;;;;;5439145;26;19995;-82
2024/04/08 12:33:08;;;;;;;26.92;4.78;;;29.40;99.90;;;;;;5388188;26;20007;-81
2024/04/08 12:35:59;;;;;;;23.17;3.90;;;29.50;99.90;;;;;;5403367;26;20058;-83
2024/04/08 12:38:50;;;;;;;30.98;4.63;;;29.80;99.90;;;;;;5421340;26;20007;-86
2024/04/08 12:41:40;;;;;;;28.52;4.95;;;29.30;99.90;;;;;;5413741;26;20007;-85
2024/04/08 12:44:28;;;;;;;27.00;4.32;;;28.90;99.90;;;;;;5412376;26;20007;-84
2024/04/08 12:47:16;;;;;;;31.75;4.97;;;29.20;99.90;;;;;;5409084;26;20035;-85
2024/04/08 12:50:04;;;;;;;34.55;4.43;;;30.30;99.90;;;;;;5382222;26;20015;-85
2024/04/08 12:52:53;;;;;;;28.25;5.38;;;30.70;99.90;;;;;;5386166;26;20014;-80
2024/04/08 12:55:41;;;;;;;21.85;5.30;;;30.30;99.90;;;;;;5420771;26;20099;-83
2024/04/08 12:58:32;;;;;;;29.10;4.30;;;30.10;99.90;;;;;;5405585;26;20007;-85
2024/04/08 13:01:19;;;;;;;30.73;5.43;;;30.80;99.90;;;;;;5405738;26;20456;-85
2024/04/08 13:04:06;;;;;;;35.13;6.35;;;31.10;99.90;;;;;;5381951;26;20004;-83
2024/04/08 13:06:56;;;;;;;27.20;5.03;;;31.00;99.90;;;;;;5421561;26;20008;-83
2024/04/08 13:09:51;;;;;;;38.45;5.80;;;30.60;99.90;;;;;;5405256;26;20041;-83
2024/04/08 13:12:40;;;;;;;41.95;5.82;;;30.70;99.90;;;;;;5407332;26;20000;-84
2024/04/08 13:15:29;;;;;;;29.83;5.50;;;31.20;99.90;;;;;;5421216;26;20019;-82
2024/04/08 13:18:16;;;;;;;32.75;6.20;;;31.80;99.90;;;;;;5418265;26;20003;-83
2024/04/08 13:21:05;;;;;;;32.63;5.85;;;31.50;99.90;;;;;;5407759;26;20008;-83
2024/04/08 13:23:54;;;;;;;39.03;6.30;;;31.20;99.90;;;;;;5404172;26;20024;-83
2024/04/08 13:26:44;;;;;;;30.27;5.60;;;31.00;99.90;;;;;;5411464;26;20007;-82
2024/04/08 13:29:31;;;;;;;39.65;6.28;;;30.70;99.90;;;;;;5404625;26;20036;-86
2024/04/08 13:32:20;;;;;;;34.15;6.03;;;31.00;99.90;;;;;;5402812;26;20007;-84
2024/04/08 13:35:09;;;;;;;27.25;5.45;;;30.90;99.90;;;;;;5405522;26;20040;-83
2024/04/08 13:38:00;;;;;;;28.08;5.57;;;30.70;99.90;;;;;;5353200;26;20022;-82
2024/04/08 13:40:48;;;;;;;39.30;6.65;;;30.50;99.90;;;;;;5402654;26;20487;-85
2024/04/08 13:43:38;;;;;;;26.52;5.35;;;30.70;99.90;;;;;;5405586;26;20023;-84
2024/04/08 13:46:32;;;;;;;26.63;5.68;;;30.90;99.90;;;;;;5402526;26;20035;-83
2024/04/08 13:49:20;;;;;;;38.28;6.85;;;30.60;99.90;;;;;;5377194;26;20007;-80
2024/04/08 13:52:10;;;;;;;27.73;5.78;;;30.50;99.90;;;;;;5402458;26;20374;-83
2024/04/08 13:54:59;;;;;;;42.53;5.85;;;30.20;99.90;;;;;;5401690;26;20366;-82
2024/04/08 13:57:48;;;;;;;37.83;5.60;;;30.30;99.90;;;;;;5409050;26;20004;-84
2024/04/08 14:00:40;;;;;;;30.55;6.00;;;30.70;99.90;;;;;;5393166;26;20019;-83
2024/04/08 14:03:29;;;;;;;40.75;5.65;;;30.10;99.90;;;;;;5409546;26;20095;-80
2024/04/08 14:06:17;;;;;;;38.10;7.63;;;29.70;99.90;;;;;;5421700;26;20073;-84
2024/04/08 14:09:07;;;;;;;38.03;7.00;;;29.80;99.90;;;;;;5401191;26;20460;-82
2024/04/08 14:11:55;;;;;;;43.88;8.25;;;29.60;99.90;;;;;;5403351;26;20046;-81
2024/04/08 14:14:43;;;;;;;35.70;6.45;;;28.70;99.90;;;;;;5403897;26;20035;-82
2024/04/08 14:17:30;;;;;;;39.53;7.65;;;28.20;99.90;;;;;;5383213;26;20008;-82
2024/04/08 14:20:17;;;;;;;38.53;6.45;;;27.80;99.90;;;;;;5403847;26;20364;-82
2024/04/08 14:23:09;;;;;;;44.80;6.70;;;27.60;99.90;;;;;;5403517;26;20007;-83
2024/04/08 14:25:57;;;;;;;47.50;8.45;;;27.50;99.90;;;;;;5404220;26;20008;-85
2024/04/08 14:28:44;;;;;;;42.03;8.75;;;27.40;99.90;;;;;;5381515;26;20012;-83
2024/04/08 14:31:32;;;;;;;45.42;8.55;;;27.40;99.90;;;;;;5406017;26;20003;-84
2024/04/08 14:34:33;;;;;;;57.85;7.95;;;27.30;99.90;;;;;;5404972;26;20008;-82